sensor_id;sensor_type;location;lat;lon;timestamp;temperature;humidity
1686;DHT22;840;47.980;7.830;2022-12-07T05:30:10;5.10;99.90
1686;DHT22;840;47.980;7.830;2022-12-07T05:40:25;5.20;99.90
1686;DHT22;840;47.980;7.830;2022-12-07T05:42:55;5.20;99.90
1686;DHT22;840;47.980;7.830;2022-12-07T06:26:41;4.50;99.90
1686;DHT22;840;47.980;7.830;2022-12-07T06:36:44;4.40;99.90
1686;DHT22;840;47.980;7.830;2022-12-07T07:32:03;3.70;99.90
1686;DHT22;840;47.980;7.830;2022-12-07T07:41:53;3.90;99.90
1686;DHT22;840;47.980;7.830;2022-12-07T07:47:31;3.80;99.90
1686;DHT22;840;47.980;7.830;2022-12-07T07:50:13;3.90;99.90
1686;DHT22;840;47.980;7.830;2022-12-07T07:53:03;3.90;99.90
1686;DHT22;840;47.980;7.830;2022-12-07T07:55:53;3.90;99.90
1686;DHT22;840;47.980;7.830;2022-12-07T07:58:34;3.80;99.90
1686;DHT22;840;47.980;7.830;2022-12-07T08:01:59;3.80;99.90
1686;DHT22;840;47.980;7.830;2022-12-07T08:05:00;3.80;99.90
1686;DHT22;840;47.980;7.830;2022-12-07T08:07:53;3.90;99.90
1686;DHT22;840;47.980;7.830;2022-12-07T08:11:08;4.00;99.90
1686;DHT22;840;47.980;7.830;2022-12-07T08:14:04;3.90;99.90
1686;DHT22;840;47.980;7.830;2022-12-07T08:20:29;3.80;99.90
1686;DHT22;840;47.980;7.830;2022-12-07T08:23:00;3.70;99.90
1686;DHT22;840;47.980;7.830;2022-12-07T08:29:30;3.70;99.90
1686;DHT22;840;47.980;7.830;2022-12-07T08:32:21;3.80;99.90
1686;DHT22;840;47.980;7.830;2022-12-07T08:46:18;4.10;99.90
1686;DHT22;840;47.980;7.830;2022-12-07T08:48:51;4.20;99.90
1686;DHT22;840;47.980;7.830;2022-12-07T08:51:24;4.40;99.90
1686;DHT22;840;47.980;7.830;2022-12-07T08:54:15;4.60;99.90
1686;DHT22;840;47.980;7.830;2022-12-07T08:56:46;4.70;99.90
1686;DHT22;840;47.980;7.830;2022-12-07T08:59:29;4.80;99.90
1686;DHT22;840;47.980;7.830;2022-12-07T09:02:09;5.00;99.90
1686;DHT22;840;47.980;7.830;2022-12-07T09:11:03;5.10;99.90
1686;DHT22;840;47.980;7.830;2022-12-07T09:17:33;5.10;99.90
1686;DHT22;840;47.980;7.830;2022-12-07T09:26:50;5.10;99.90
1686;DHT22;840;47.980;7.830;2022-12-07T09:29:18;5.20;99.90
1686;DHT22;840;47.980;7.830;2022-12-07T09:31:47;5.20;99.90
1686;DHT22;840;47.980;7.830;2022-12-07T09:38:01;5.40;99.90
1686;DHT22;840;47.980;7.830;2022-12-07T09:40:29;5.40;99.90
1686;DHT22;840;47.980;7.830;2022-12-07T09:43:05;5.50;99.90
1686;DHT22;840;47.980;7.830;2022-12-07T09:45:52;5.50;99.90
1686;DHT22;840;47.980;7.830;2022-12-07T09:48:54;5.60;99.90
1686;DHT22;840;47.980;7.830;2022-12-07T09:51:27;5.60;99.90
1686;DHT22;840;47.980;7.830;2022-12-07T09:54:01;5.60;99.90
1686;DHT22;840;47.980;7.830;2022-12-07T09:59:55;5.60;99.90
1686;DHT22;840;47.980;7.830;2022-12-07T10:09:56;5.60;99.90
1686;DHT22;840;47.980;7.830;2022-12-07T10:13:06;5.60;99.90
1686;DHT22;840;47.980;7.830;2022-12-07T10:16:00;5.60;99.90
1686;DHT22;840;47.980;7.830;2022-12-07T10:21:37;5.70;99.90
1686;DHT22;840;47.980;7.830;2022-12-07T10:24:16;5.80;99.90
1686;DHT22;840;47.980;7.830;2022-12-07T10:56:45;6.30;99.90
1686;DHT22;840;47.980;7.830;2022-12-07T10:59:42;6.40;99.90
1686;DHT22;840;47.980;7.830;2022-12-07T11:06:10;6.60;99.90
1686;DHT22;840;47.980;7.830;2022-12-07T11:09:09;6.60;99.90
1686;DHT22;840;47.980;7.830;2022-12-07T11:12:10;6.70;99.90
1686;DHT22;840;47.980;7.830;2022-12-07T11:14:49;6.60;99.90
1686;DHT22;840;47.980;7.830;2022-12-07T11:17:23;6.70;99.90
1686;DHT22;840;47.980;7.830;2022-12-07T11:20:01;6.80;99.90
1686;DHT22;840;47.980;7.830;2022-12-07T11:22:38;6.80;99.90
1686;DHT22;840;47.980;7.830;2022-12-07T11:25:18;6.90;99.90
1686;DHT22;840;47.980;7.830;2022-12-07T11:28:11;6.90;99.90
1686;DHT22;840;47.980;7.830;2022-12-07T11:30:56;7.00;99.90
1686;DHT22;840;47.980;7.830;2022-12-07T11:33:31;7.10;99.90
1686;DHT22;840;47.980;7.830;2022-12-07T11:39:32;7.30;99.90
1686;DHT22;840;47.980;7.830;2022-12-07T11:42:09;7.20;99.90
1686;DHT22;840;47.980;7.830;2022-12-07T11:47:19;7.50;99.90
1686;DHT22;840;47.980;7.830;2022-12-07T11:50:26;7.60;99.90
1686;DHT22;840;47.980;7.830;2022-12-07T12:00:09;7.90;99.90
1686;DHT22;840;47.980;7.830;2022-12-07T13:08:14;6.90;99.90
1686;DHT22;840;47.980;7.830;2022-12-07T13:11:03;7.00;99.90
1686;DHT22;840;47.980;7.830;2022-12-07T13:45:25;7.10;99.90
1686;DHT22;840;47.980;7.830;2022-12-07T13:48:20;7.20;99.90
1686;DHT22;840;47.980;7.830;2022-12-07T13:50:54;7.10;99.90
1686;DHT22;840;47.980;7.830;2022-12-07T13:53:22;7.10;99.90
1686;DHT22;840;47.980;7.830;2022-12-07T13:56:17;7.20;99.90
1686;DHT22;840;47.980;7.830;2022-12-07T14:18:54;7.40;99.90
1686;DHT22;840;47.980;7.830;2022-12-07T14:21:45;7.40;99.90
1686;DHT22;840;47.980;7.830;2022-12-07T14:24:41;7.40;99.90
1686;DHT22;840;47.980;7.830;2022-12-07T14:35:24;7.00;99.90
1686;DHT22;840;47.980;7.830;2022-12-07T14:38:41;7.00;99.90
1686;DHT22;840;47.980;7.830;2022-12-07T14:41:42;6.80;99.90
1686;DHT22;840;47.980;7.830;2022-12-07T14:44:36;6.80;99.90
1686;DHT22;840;47.980;7.830;2022-12-07T14:51:10;6.70;99.90
1686;DHT22;840;47.980;7.830;2022-12-07T14:53:59;6.80;99.90
1686;DHT22;840;47.980;7.830;2022-12-07T14:56:45;6.70;99.90
1686;DHT22;840;47.980;7.830;2022-12-07T14:59:41;6.70;99.90
1686;DHT22;840;47.980;7.830;2022-12-07T15:27:04;6.60;99.90
1686;DHT22;840;47.980;7.830;2022-12-07T15:36:36;6.30;99.90
1686;DHT22;840;47.980;7.830;2022-12-07T15:39:22;6.30;99.90
1686;DHT22;840;47.980;7.830;2022-12-07T15:45:25;6.30;99.90
1686;DHT22;840;47.980;7.830;2022-12-07T15:48:21;6.20;99.90
1686;DHT22;840;47.980;7.830;2022-12-07T15:51:07;6.10;99.90
1686;DHT22;840;47.980;7.830;2022-12-07T15:53:58;6.10;99.90
1686;DHT22;840;47.980;7.830;2022-12-07T15:56:36;6.00;99.90
1686;DHT22;840;47.980;7.830;2022-12-07T15:59:04;6.00;99.90
1686;DHT22;840;47.980;7.830;2022-12-07T16:01:33;6.10;99.90
1686;DHT22;840;47.980;7.830;2022-12-07T16:04:01;6.10;99.90
1686;DHT22;840;47.980;7.830;2022-12-07T16:06:34;6.10;99.90
1686;DHT22;840;47.980;7.830;2022-12-07T16:23:44;6.00;99.90
1686;DHT22;840;47.980;7.830;2022-12-07T16:26:44;6.00;99.90
1686;DHT22;840;47.980;7.830;2022-12-07T16:29:42;5.90;99.90
1686;DHT22;840;47.980;7.830;2022-12-07T16:35:49;5.80;99.90
1686;DHT22;840;47.980;7.830;2022-12-07T16:38:22;5.80;99.90
1686;DHT22;840;47.980;7.830;2022-12-07T16:40:57;5.70;99.90
1686;DHT22;840;47.980;7.830;2022-12-07T16:43:28;5.70;99.90
1686;DHT22;840;47.980;7.830;2022-12-07T16:45:59;5.70;99.90
1686;DHT22;840;47.980;7.830;2022-12-07T16:48:42;5.70;99.90
1686;DHT22;840;47.980;7.830;2022-12-07T16:51:24;5.60;99.90
1686;DHT22;840;47.980;7.830;2022-12-07T16:53:53;5.50;99.90
1686;DHT22;840;47.980;7.830;2022-12-07T16:56:30;5.60;99.90
1686;DHT22;840;47.980;7.830;2022-12-07T16:59:00;5.50;99.90
1686;DHT22;840;47.980;7.830;2022-12-07T17:01:31;5.40;99.90
1686;DHT22;840;47.980;7.830;2022-12-07T17:04:00;5.40;99.90
1686;DHT22;840;47.980;7.830;2022-12-07T17:06:38;5.30;99.90
1686;DHT22;840;47.980;7.830;2022-12-07T17:09:22;5.30;99.90
1686;DHT22;840;47.980;7.830;2022-12-07T17:15:19;5.20;99.90
1686;DHT22;840;47.980;7.830;2022-12-07T17:25:43;5.00;99.90
1686;DHT22;840;47.980;7.830;2022-12-07T17:28:47;4.90;99.90
1686;DHT22;840;47.980;7.830;2022-12-07T17:31:36;4.80;99.90
1686;DHT22;840;47.980;7.830;2022-12-07T17:34:03;4.80;99.90
1686;DHT22;840;47.980;7.830;2022-12-07T17:36:31;4.80;99.90
1686;DHT22;840;47.980;7.830;2022-12-07T17:38:58;4.80;99.90
1686;DHT22;840;47.980;7.830;2022-12-07T17:41:35;4.70;99.90
1686;DHT22;840;47.980;7.830;2022-12-07T17:44:20;4.60;99.90
1686;DHT22;840;47.980;7.830;2022-12-07T17:46:50;4.70;99.90
1686;DHT22;840;47.980;7.830;2022-12-07T17:52:56;4.60;99.90
1686;DHT22;840;47.980;7.830;2022-12-07T18:15:28;4.50;99.90
1686;DHT22;840;47.980;7.830;2022-12-07T18:17:56;4.50;99.90
1686;DHT22;840;47.980;7.830;2022-12-07T18:20:27;4.50;99.90
1686;DHT22;840;47.980;7.830;2022-12-07T18:22:54;4.50;99.90
1686;DHT22;840;47.980;7.830;2022-12-07T18:25:21;4.50;99.90
1686;DHT22;840;47.980;7.830;2022-12-07T18:27:49;4.50;99.90
1686;DHT22;840;47.980;7.830;2022-12-07T18:30:19;4.50;99.90
1686;DHT22;840;47.980;7.830;2022-12-07T18:32:48;4.50;99.90
1686;DHT22;840;47.980;7.830;2022-12-07T18:35:15;4.40;99.90
1686;DHT22;840;47.980;7.830;2022-12-07T18:37:42;4.30;99.90
1686;DHT22;840;47.980;7.830;2022-12-07T18:40:21;4.30;99.90
1686;DHT22;840;47.980;7.830;2022-12-07T18:43:03;4.20;99.90
1686;DHT22;840;47.980;7.830;2022-12-07T18:45:57;4.10;99.90
1686;DHT22;840;47.980;7.830;2022-12-07T18:52:38;4.10;99.90
1686;DHT22;840;47.980;7.830;2022-12-07T18:58:36;4.00;99.90
1686;DHT22;840;47.980;7.830;2022-12-07T19:01:26;4.00;99.90
1686;DHT22;840;47.980;7.830;2022-12-07T19:03:55;3.90;99.90
1686;DHT22;840;47.980;7.830;2022-12-07T19:06:53;3.90;99.90
1686;DHT22;840;47.980;7.830;2022-12-07T19:09:36;3.90;99.90
1686;DHT22;840;47.980;7.830;2022-12-07T19:12:03;3.80;99.90
1686;DHT22;840;47.980;7.830;2022-12-07T19:31:36;3.70;99.90
1686;DHT22;840;47.980;7.830;2022-12-07T19:34:44;3.70;99.90
1686;DHT22;840;47.980;7.830;2022-12-07T19:37:17;3.60;99.90
1686;DHT22;840;47.980;7.830;2022-12-07T19:39:47;3.60;99.90
1686;DHT22;840;47.980;7.830;2022-12-07T19:42:16;3.50;99.90
1686;DHT22;840;47.980;7.830;2022-12-07T19:44:43;3.50;99.90
1686;DHT22;840;47.980;7.830;2022-12-07T19:47:11;3.50;99.90
1686;DHT22;840;47.980;7.830;2022-12-07T19:49:42;3.50;99.90
1686;DHT22;840;47.980;7.830;2022-12-07T19:52:12;3.50;99.90
1686;DHT22;840;47.980;7.830;2022-12-07T19:54:39;3.50;99.90
1686;DHT22;840;47.980;7.830;2022-12-07T19:57:06;3.50;99.90
1686;DHT22;840;47.980;7.830;2022-12-07T19:59:39;3.50;99.90
1686;DHT22;840;47.980;7.830;2022-12-07T20:02:12;3.40;99.90
1686;DHT22;840;47.980;7.830;2022-12-07T20:04:40;3.40;99.90
1686;DHT22;840;47.980;7.830;2022-12-07T20:07:07;3.30;99.90
1686;DHT22;840;47.980;7.830;2022-12-07T20:09:34;3.30;99.90
1686;DHT22;840;47.980;7.830;2022-12-07T20:12:01;3.30;99.90
1686;DHT22;840;47.980;7.830;2022-12-07T20:14:45;3.30;99.90
1686;DHT22;840;47.980;7.830;2022-12-07T20:17:13;3.30;99.90
1686;DHT22;840;47.980;7.830;2022-12-07T20:19:41;3.30;99.90
1686;DHT22;840;47.980;7.830;2022-12-07T20:22:08;3.20;99.90
1686;DHT22;840;47.980;7.830;2022-12-07T20:24:35;3.20;99.90
1686;DHT22;840;47.980;7.830;2022-12-07T20:27:02;3.20;99.90
1686;DHT22;840;47.980;7.830;2022-12-07T20:29:29;3.20;99.90
1686;DHT22;840;47.980;7.830;2022-12-07T20:31:57;3.20;99.90
1686;DHT22;840;47.980;7.830;2022-12-07T20:34:25;3.20;99.90
1686;DHT22;840;47.980;7.830;2022-12-07T20:36:52;3.20;99.90
1686;DHT22;840;47.980;7.830;2022-12-07T20:39:19;3.10;99.90
1686;DHT22;840;47.980;7.830;2022-12-07T20:41:48;3.10;99.90
1686;DHT22;840;47.980;7.830;2022-12-07T20:44:32;3.10;99.90
1686;DHT22;840;47.980;7.830;2022-12-07T20:47:02;3.00;99.90
1686;DHT22;840;47.980;7.830;2022-12-07T20:49:39;3.00;99.90
1686;DHT22;840;47.980;7.830;2022-12-07T20:52:08;3.00;99.90
1686;DHT22;840;47.980;7.830;2022-12-07T20:54:35;3.00;99.90
1686;DHT22;840;47.980;7.830;2022-12-07T20:57:02;3.00;99.90
1686;DHT22;840;47.980;7.830;2022-12-07T20:59:29;3.00;99.90
1686;DHT22;840;47.980;7.830;2022-12-07T21:01:56;2.90;99.90
1686;DHT22;840;47.980;7.830;2022-12-07T21:04:55;3.00;99.90
1686;DHT22;840;47.980;7.830;2022-12-07T21:11:33;2.80;99.90
1686;DHT22;840;47.980;7.830;2022-12-07T21:14:27;2.80;99.90
1686;DHT22;840;47.980;7.830;2022-12-07T21:16:54;2.80;99.90
1686;DHT22;840;47.980;7.830;2022-12-07T21:19:21;2.80;99.90
1686;DHT22;840;47.980;7.830;2022-12-07T21:22:15;2.80;99.90
1686;DHT22;840;47.980;7.830;2022-12-07T21:25:17;2.80;99.90
1686;DHT22;840;47.980;7.830;2022-12-07T21:27:50;2.80;99.90
1686;DHT22;840;47.980;7.830;2022-12-07T21:30:19;2.80;99.90
1686;DHT22;840;47.980;7.830;2022-12-07T21:32:46;2.70;99.90
1686;DHT22;840;47.980;7.830;2022-12-07T21:35:13;2.80;99.90
1686;DHT22;840;47.980;7.830;2022-12-07T21:37:49;2.70;99.90
1686;DHT22;840;47.980;7.830;2022-12-07T21:40:16;2.80;99.90
1686;DHT22;840;47.980;7.830;2022-12-07T21:42:44;2.80;99.90
